sensor_id;sensor_type;location;lat;lon;timestamp;temperature;humidity
21834;DHT22;11079;51.092;3.458;2022-09-23T00:00:30;12.80;99.90
21834;DHT22;11079;51.092;3.458;2022-09-23T00:02:56;12.80;99.90
21834;DHT22;11079;51.092;3.458;2022-09-23T00:05:22;12.90;99.90
21834;DHT22;11079;51.092;3.458;2022-09-23T00:07:47;12.90;99.90
21834;DHT22;11079;51.092;3.458;2022-09-23T00:10:13;12.80;99.90
21834;DHT22;11079;51.092;3.458;2022-09-23T00:12:39;12.80;99.90
21834;DHT22;11079;51.092;3.458;2022-09-23T00:15:05;12.80;99.90
21834;DHT22;11079;51.092;3.458;2022-09-23T00:17:31;12.70;99.90
21834;DHT22;11079;51.092;3.458;2022-09-23T00:19:57;12.70;99.90
21834;DHT22;11079;51.092;3.458;2022-09-23T00:22:22;12.70;99.90
21834;DHT22;11079;51.092;3.458;2022-09-23T00:24:48;12.70;99.90
21834;DHT22;11079;51.092;3.458;2022-09-23T00:27:14;12.60;99.90
21834;DHT22;11079;51.092;3.458;2022-09-23T00:29:40;12.50;99.90
21834;DHT22;11079;51.092;3.458;2022-09-23T00:32:05;12.50;99.90
21834;DHT22;11079;51.092;3.458;2022-09-23T00:34:31;12.40;99.90
21834;DHT22;11079;51.092;3.458;2022-09-23T00:36:56;12.40;99.90
21834;DHT22;11079;51.092;3.458;2022-09-23T00:39:23;12.40;99.90
21834;DHT22;11079;51.092;3.458;2022-09-23T00:41:48;12.40;99.90
21834;DHT22;11079;51.092;3.458;2022-09-23T00:44:50;12.50;99.90
21834;DHT22;11079;51.092;3.458;2022-09-23T00:50:32;12.30;99.90
21834;DHT22;11079;51.092;3.458;2022-09-23T00:53:04;12.30;99.90
21834;DHT22;11079;51.092;3.458;2022-09-23T00:55:45;12.40;99.90
21834;DHT22;11079;51.092;3.458;2022-09-23T00:58:14;12.40;99.90
21834;DHT22;11079;51.092;3.458;2022-09-23T01:00:42;12.30;99.90
21834;DHT22;11079;51.092;3.458;2022-09-23T01:03:08;12.30;99.90
21834;DHT22;11079;51.092;3.458;2022-09-23T01:05:34;12.40;99.90
21834;DHT22;11079;51.092;3.458;2022-09-23T01:08:02;12.40;99.90
21834;DHT22;11079;51.092;3.458;2022-09-23T01:16:38;12.40;99.90
21834;DHT22;11079;51.092;3.458;2022-09-23T01:24:44;12.20;99.90
21834;DHT22;11079;51.092;3.458;2022-09-23T01:27:15;12.10;99.90
21834;DHT22;11079;51.092;3.458;2022-09-23T01:40:50;12.10;99.90
21834;DHT22;11079;51.092;3.458;2022-09-23T01:46:08;12.20;99.90
21834;DHT22;11079;51.092;3.458;2022-09-23T01:48:50;12.10;99.90
21834;DHT22;11079;51.092;3.458;2022-09-23T01:51:25;12.10;99.90
21834;DHT22;11079;51.092;3.458;2022-09-23T01:56:28;12.10;99.90
21834;DHT22;11079;51.092;3.458;2022-09-23T01:59:04;12.20;99.90
21834;DHT22;11079;51.092;3.458;2022-09-23T02:04:12;12.00;99.90
21834;DHT22;11079;51.092;3.458;2022-09-23T02:06:42;12.00;99.90
21834;DHT22;11079;51.092;3.458;2022-09-23T02:09:14;12.10;99.90
21834;DHT22;11079;51.092;3.458;2022-09-23T02:11:44;12.30;99.90
21834;DHT22;11079;51.092;3.458;2022-09-23T02:14:12;12.30;99.90
21834;DHT22;11079;51.092;3.458;2022-09-23T02:16:48;12.30;99.90
21834;DHT22;11079;51.092;3.458;2022-09-23T02:19:34;12.40;99.90
21834;DHT22;11079;51.092;3.458;2022-09-23T02:22:15;12.50;99.90
21834;DHT22;11079;51.092;3.458;2022-09-23T02:24:43;12.50;99.90
21834;DHT22;11079;51.092;3.458;2022-09-23T02:30:10;12.40;99.90
21834;DHT22;11079;51.092;3.458;2022-09-23T02:35:37;12.40;99.90
21834;DHT22;11079;51.092;3.458;2022-09-23T02:38:43;12.40;99.90
21834;DHT22;11079;51.092;3.458;2022-09-23T02:41:22;12.30;99.90
21834;DHT22;11079;51.092;3.458;2022-09-23T02:44:12;12.30;99.90
21834;DHT22;11079;51.092;3.458;2022-09-23T02:46:39;12.30;99.90
21834;DHT22;11079;51.092;3.458;2022-09-23T02:49:14;12.40;99.90
21834;DHT22;11079;51.092;3.458;2022-09-23T02:51:42;12.40;99.90
21834;DHT22;11079;51.092;3.458;2022-09-23T02:54:12;12.40;99.90
21834;DHT22;11079;51.092;3.458;2022-09-23T02:56:39;12.40;99.90
21834;DHT22;11079;51.092;3.458;2022-09-23T02:59:07;12.20;99.90
21834;DHT22;11079;51.092;3.458;2022-09-23T03:04:56;12.20;99.90
21834;DHT22;11079;51.092;3.458;2022-09-23T03:15:39;12.40;99.90
21834;DHT22;11079;51.092;3.458;2022-09-23T03:18:17;12.40;99.90
21834;DHT22;11079;51.092;3.458;2022-09-23T03:20:55;12.50;99.90
21834;DHT22;11079;51.092;3.458;2022-09-23T03:23:34;12.50;99.90
21834;DHT22;11079;51.092;3.458;2022-09-23T03:26:04;12.60;99.90
21834;DHT22;11079;51.092;3.458;2022-09-23T03:28:34;12.60;99.90
21834;DHT22;11079;51.092;3.458;2022-09-23T03:31:00;12.60;99.90
21834;DHT22;11079;51.092;3.458;2022-09-23T03:33:26;12.60;99.90
21834;DHT22;11079;51.092;3.458;2022-09-23T03:35:58;12.50;99.90
21834;DHT22;11079;51.092;3.458;2022-09-23T03:38:45;12.40;99.90
21834;DHT22;11079;51.092;3.458;2022-09-23T03:41:25;12.50;99.90
21834;DHT22;11079;51.092;3.458;2022-09-23T03:43:54;12.30;99.90
21834;DHT22;11079;51.092;3.458;2022-09-23T03:46:26;12.40;99.90
21834;DHT22;11079;51.092;3.458;2022-09-23T03:49:15;12.30;99.90
21834;DHT22;11079;51.092;3.458;2022-09-23T03:51:41;12.30;99.90
21834;DHT22;11079;51.092;3.458;2022-09-23T03:54:07;12.40;99.90
21834;DHT22;11079;51.092;3.458;2022-09-23T03:56:32;12.60;99.90
21834;DHT22;11079;51.092;3.458;2022-09-23T03:58:58;12.70;99.90
21834;DHT22;11079;51.092;3.458;2022-09-23T04:01:24;12.60;99.90
21834;DHT22;11079;51.092;3.458;2022-09-23T04:03:51;12.50;99.90
21834;DHT22;11079;51.092;3.458;2022-09-23T04:06:17;12.40;99.90
21834;DHT22;11079;51.092;3.458;2022-09-23T04:08:42;12.30;99.90
21834;DHT22;11079;51.092;3.458;2022-09-23T04:11:08;12.50;99.90
21834;DHT22;11079;51.092;3.458;2022-09-23T04:13:34;12.40;99.90
21834;DHT22;11079;51.092;3.458;2022-09-23T04:16:00;12.40;99.90
21834;DHT22;11079;51.092;3.458;2022-09-23T04:18:25;12.30;99.90
21834;DHT22;11079;51.092;3.458;2022-09-23T04:20:56;12.30;99.90
21834;DHT22;11079;51.092;3.458;2022-09-23T04:23:24;12.20;99.90
21834;DHT22;11079;51.092;3.458;2022-09-23T04:25:50;12.40;99.90
21834;DHT22;11079;51.092;3.458;2022-09-23T04:28:15;12.50;99.90
21834;DHT22;11079;51.092;3.458;2022-09-23T04:30:41;12.50;99.90
21834;DHT22;11079;51.092;3.458;2022-09-23T04:33:09;12.30;99.90
21834;DHT22;11079;51.092;3.458;2022-09-23T04:35:36;12.30;99.90
21834;DHT22;11079;51.092;3.458;2022-09-23T04:38:06;12.50;99.90
21834;DHT22;11079;51.092;3.458;2022-09-23T04:40:32;12.50;99.90
21834;DHT22;11079;51.092;3.458;2022-09-23T04:43:00;12.40;99.90
21834;DHT22;11079;51.092;3.458;2022-09-23T04:45:25;12.40;99.90
21834;DHT22;11079;51.092;3.458;2022-09-23T04:47:51;12.20;99.90
21834;DHT22;11079;51.092;3.458;2022-09-23T04:50:17;12.30;99.90
21834;DHT22;11079;51.092;3.458;2022-09-23T04:52:43;12.30;99.90
21834;DHT22;11079;51.092;3.458;2022-09-23T04:55:09;12.50;99.90
21834;DHT22;11079;51.092;3.458;2022-09-23T04:57:35;12.60;99.90
21834;DHT22;11079;51.092;3.458;2022-09-23T05:00:00;12.60;99.90
21834;DHT22;11079;51.092;3.458;2022-09-23T05:02:26;12.80;99.90
21834;DHT22;11079;51.092;3.458;2022-09-23T05:04:52;13.00;99.90
21834;DHT22;11079;51.092;3.458;2022-09-23T05:07:18;13.00;99.90
21834;DHT22;11079;51.092;3.458;2022-09-23T05:09:44;12.80;99.90
21834;DHT22;11079;51.092;3.458;2022-09-23T05:12:10;12.80;99.90
21834;DHT22;11079;51.092;3.458;2022-09-23T05:14:36;12.80;99.90
21834;DHT22;11079;51.092;3.458;2022-09-23T05:17:04;12.80;99.90
21834;DHT22;11079;51.092;3.458;2022-09-23T05:19:29;12.60;99.90
21834;DHT22;11079;51.092;3.458;2022-09-23T05:21:55;12.60;99.90
21834;DHT22;11079;51.092;3.458;2022-09-23T05:24:20;12.30;99.90
21834;DHT22;11079;51.092;3.458;2022-09-23T05:26:48;12.30;99.90
21834;DHT22;11079;51.092;3.458;2022-09-23T05:29:14;12.30;99.90
21834;DHT22;11079;51.092;3.458;2022-09-23T05:31:40;12.40;99.90
21834;DHT22;11079;51.092;3.458;2022-09-23T05:34:05;12.40;99.90
21834;DHT22;11079;51.092;3.458;2022-09-23T05:36:33;12.50;99.90
21834;DHT22;11079;51.092;3.458;2022-09-23T05:38:58;12.60;99.90
21834;DHT22;11079;51.092;3.458;2022-09-23T05:41:25;12.60;99.90
21834;DHT22;11079;51.092;3.458;2022-09-23T05:43:52;12.80;99.90
21834;DHT22;11079;51.092;3.458;2022-09-23T05:46:26;12.70;99.90
21834;DHT22;11079;51.092;3.458;2022-09-23T05:48:54;12.80;99.90
21834;DHT22;11079;51.092;3.458;2022-09-23T05:51:22;12.80;99.90
21834;DHT22;11079;51.092;3.458;2022-09-23T05:53:49;12.60;99.90
21834;DHT22;11079;51.092;3.458;2022-09-23T05:56:17;12.70;99.90
21834;DHT22;11079;51.092;3.458;2022-09-23T05:58:43;12.70;99.90
21834;DHT22;11079;51.092;3.458;2022-09-23T06:01:20;12.70;99.90
21834;DHT22;11079;51.092;3.458;2022-09-23T06:03:47;12.70;99.90
21834;DHT22;11079;51.092;3.458;2022-09-23T06:06:14;12.70;99.90
21834;DHT22;11079;51.092;3.458;2022-09-23T06:08:41;12.70;99.90
21834;DHT22;11079;51.092;3.458;2022-09-23T06:11:07;13.00;99.90
21834;DHT22;11079;51.092;3.458;2022-09-23T06:13:34;13.10;99.90
21834;DHT22;11079;51.092;3.458;2022-09-23T06:16:03;13.20;99.90
21834;DHT22;11079;51.092;3.458;2022-09-23T06:18:29;13.20;99.90
21834;DHT22;11079;51.092;3.458;2022-09-23T06:20:54;13.40;99.90
21834;DHT22;11079;51.092;3.458;2022-09-23T06:23:20;13.50;99.90
21834;DHT22;11079;51.092;3.458;2022-09-23T06:25:45;13.60;99.90
21834;DHT22;11079;51.092;3.458;2022-09-23T06:28:11;13.50;99.90
21834;DHT22;11079;51.092;3.458;2022-09-23T06:30:38;13.40;99.90
21834;DHT22;11079;51.092;3.458;2022-09-23T06:33:04;13.50;99.90
21834;DHT22;11079;51.092;3.458;2022-09-23T06:35:30;13.30;99.90
21834;DHT22;11079;51.092;3.458;2022-09-23T06:38:02;13.10;99.90
21834;DHT22;11079;51.092;3.458;2022-09-23T06:40:28;13.00;99.90
21834;DHT22;11079;51.092;3.458;2022-09-23T06:42:58;13.10;99.90
21834;DHT22;11079;51.092;3.458;2022-09-23T06:45:24;13.30;99.90
21834;DHT22;11079;51.092;3.458;2022-09-23T06:47:56;13.30;99.90
21834;DHT22;11079;51.092;3.458;2022-09-23T06:50:26;13.30;99.90
21834;DHT22;11079;51.092;3.458;2022-09-23T06:52:53;13.50;99.90
21834;DHT22;11079;51.092;3.458;2022-09-23T06:55:27;13.50;99.90
21834;DHT22;11079;51.092;3.458;2022-09-23T06:58:01;13.40;99.90
21834;DHT22;11079;51.092;3.458;2022-09-23T07:00:27;13.50;99.90
21834;DHT22;11079;51.092;3.458;2022-09-23T07:02:53;13.70;99.90
21834;DHT22;11079;51.092;3.458;2022-09-23T07:05:20;13.90;99.90
21834;DHT22;11079;51.092;3.458;2022-09-23T07:07:47;14.10;99.90
21834;DHT22;11079;51.092;3.458;2022-09-23T07:10:12;14.30;99.90
21834;DHT22;11079;51.092;3.458;2022-09-23T07:12:38;14.60;99.90
21834;DHT22;11079;51.092;3.458;2022-09-23T07:15:04;15.00;99.90
21834;DHT22;11079;51.092;3.458;2022-09-23T07:17:30;15.30;99.90
21834;DHT22;11079;51.092;3.458;2022-09-23T07:19:56;15.40;99.90
21834;DHT22;11079;51.092;3.458;2022-09-23T07:22:24;15.50;99.90
21834;DHT22;11079;51.092;3.458;2022-09-23T07:24:51;15.50;99.90
21834;DHT22;11079;51.092;3.458;2022-09-23T07:27:23;15.50;99.90
21834;DHT22;11079;51.092;3.458;2022-09-23T07:29:49;15.70;99.90
21834;DHT22;11079;51.092;3.458;2022-09-23T07:32:18;15.40;99.90
21834;DHT22;11079;51.092;3.458;2022-09-23T07:34:44;15.60;99.90
21834;DHT22;11079;51.092;3.458;2022-09-23T07:37:11;15.60;99.90
21834;DHT22;11079;51.092;3.458;2022-09-23T07:39:37;15.70;99.90
21834;DHT22;11079;51.092;3.458;2022-09-23T07:42:04;15.90;99.90
21834;DHT22;11079;51.092;3.458;2022-09-23T07:44:31;16.30;99.90
21834;DHT22;11079;51.092;3.458;2022-09-23T07:46:57;16.60;99.90
21834;DHT22;11079;51.092;3.458;2022-09-23T07:49:23;16.60;99.90
21834;DHT22;11079;51.092;3.458;2022-09-23T07:51:49;16.60;99.90
21834;DHT22;11079;51.092;3.458;2022-09-23T07:54:15;16.60;99.90
21834;DHT22;11079;51.092;3.458;2022-09-23T07:56:42;16.70;99.90
21834;DHT22;11079;51.092;3.458;2022-09-23T07:59:14;16.80;99.90
21834;DHT22;11079;51.092;3.458;2022-09-23T08:01:44;16.90;99.90
21834;DHT22;11079;51.092;3.458;2022-09-23T08:04:14;16.70;99.90
21834;DHT22;11079;51.092;3.458;2022-09-23T08:06:53;16.70;99.90
21834;DHT22;11079;51.092;3.458;2022-09-23T08:09:21;16.70;99.90
21834;DHT22;11079;51.092;3.458;2022-09-23T08:11:47;16.70;99.90
21834;DHT22;11079;51.092;3.458;2022-09-23T08:14:32;16.50;99.90
21834;DHT22;11079;51.092;3.458;2022-09-23T08:17:10;16.30;99.90
21834;DHT22;11079;51.092;3.458;2022-09-23T08:19:37;16.40;99.90
21834;DHT22;11079;51.092;3.458;2022-09-23T08:22:02;16.50;99.90
21834;DHT22;11079;51.092;3.458;2022-09-23T08:24:31;16.90;99.90
21834;DHT22;11079;51.092;3.458;2022-09-23T08:26:56;17.00;99.90
21834;DHT22;11079;51.092;3.458;2022-09-23T08:29:24;17.10;99.90
21834;DHT22;11079;51.092;3.458;2022-09-23T08:31:50;17.20;99.90
21834;DHT22;11079;51.092;3.458;2022-09-23T08:34:17;17.50;99.90
21834;DHT22;11079;51.092;3.458;2022-09-23T08:36:44;17.60;99.90
21834;DHT22;11079;51.092;3.458;2022-09-23T08:39:13;17.70;99.90
21834;DHT22;11079;51.092;3.458;2022-09-23T08:41:53;17.50;99.90
21834;DHT22;11079;51.092;3.458;2022-09-23T08:44:49;17.60;99.90
21834;DHT22;11079;51.092;3.458;2022-09-23T08:50:04;17.70;99.90
21834;DHT22;11079;51.092;3.458;2022-09-23T08:52:43;17.90;99.90
21834;DHT22;11079;51.092;3.458;2022-09-23T08:55:13;17.90;99.90
21834;DHT22;11079;51.092;3.458;2022-09-23T09:00:43;18.10;99.90
21834;DHT22;11079;51.092;3.458;2022-09-23T09:03:23;18.30;99.90
21834;DHT22;11079;51.092;3.458;2022-09-23T09:05:58;18.10;99.90
21834;DHT22;11079;51.092;3.458;2022-09-23T09:08:31;18.00;99.90
21834;DHT22;11079;51.092;3.458;2022-09-23T09:11:30;17.90;99.90
21834;DHT22;11079;51.092;3.458;2022-09-23T09:19:54;19.00;99.90
21834;DHT22;11079;51.092;3.458;2022-09-23T09:22:48;18.80;99.90
21834;DHT22;11079;51.092;3.458;2022-09-23T09:28:09;19.20;99.90
21834;DHT22;11079;51.092;3.458;2022-09-23T09:30:39;19.30;99.90
21834;DHT22;11079;51.092;3.458;2022-09-23T09:33:14;19.40;99.90
21834;DHT22;11079;51.092;3.458;2022-09-23T09:38:15;19.00;99.90
21834;DHT22;11079;51.092;3.458;2022-09-23T09:40:45;18.50;99.90
21834;DHT22;11079;51.092;3.458;2022-09-23T09:43:18;18.70;99.90
21834;DHT22;11079;51.092;3.458;2022-09-23T09:49:08;19.00;99.90
21834;DHT22;11079;51.092;3.458;2022-09-23T09:51:36;19.00;99.90
21834;DHT22;11079;51.092;3.458;2022-09-23T09:54:21;18.90;99.90
21834;DHT22;11079;51.092;3.458;2022-09-23T09:56:47;18.70;99.90
21834;DHT22;11079;51.092;3.458;2022-09-23T09:59:26;18.50;99.90
21834;DHT22;11079;51.092;3.458;2022-09-23T10:02:25;18.60;99.90
21834;DHT22;11079;51.092;3.458;2022-09-23T10:05:28;19.10;99.90
21834;DHT22;11079;51.092;3.458;2022-09-23T10:07:54;19.40;99.90
21834;DHT22;11079;51.092;3.458;2022-09-23T10:10:23;19.10;99.90
21834;DHT22;11079;51.092;3.458;2022-09-23T10:12:49;19.20;99.90
21834;DHT22;11079;51.092;3.458;2022-09-23T10:15:29;19.30;99.90
21834;DHT22;11079;51.092;3.458;2022-09-23T10:17:58;19.40;99.90
21834;DHT22;11079;51.092;3.458;2022-09-23T10:20:31;19.80;99.90
21834;DHT22;11079;51.092;3.458;2022-09-23T10:23:08;20.40;99.90
21834;DHT22;11079;51.092;3.458;2022-09-23T10:25:39;21.30;99.90
21834;DHT22;11079;51.092;3.458;2022-09-23T10:31:14;22.60;99.90
21834;DHT22;11079;51.092;3.458;2022-09-23T10:33:52;22.60;99.90
21834;DHT22;11079;51.092;3.458;2022-09-23T10:36:19;22.80;99.90
21834;DHT22;11079;51.092;3.458;2022-09-23T10:39:20;22.70;99.90
21834;DHT22;11079;51.092;3.458;2022-09-23T10:50:40;22.60;99.90
21834;DHT22;11079;51.092;3.458;2022-09-23T10:53:17;22.20;99.90
21834;DHT22;11079;51.092;3.458;2022-09-23T11:01:08;21.30;99.90
21834;DHT22;11079;51.092;3.458;2022-09-23T11:10:02;21.10;99.90
21834;DHT22;11079;51.092;3.458;2022-09-23T11:29:33;20.90;99.90
21834;DHT22;11079;51.092;3.458;2022-09-23T11:37:57;20.70;99.90
21834;DHT22;11079;51.092;3.458;2022-09-23T11:40:30;20.70;99.90
21834;DHT22;11079;51.092;3.458;2022-09-23T11:43:03;20.70;99.90
21834;DHT22;11079;51.092;3.458;2022-09-23T11:45:37;20.60;99.90
21834;DHT22;11079;51.092;3.458;2022-09-23T11:48:10;20.60;99.90
21834;DHT22;11079;51.092;3.458;2022-09-23T11:50:55;20.80;99.90
21834;DHT22;11079;51.092;3.458;2022-09-23T11:56:35;20.80;99.90
21834;DHT22;11079;51.092;3.458;2022-09-23T11:59:39;20.80;99.90
21834;DHT22;11079;51.092;3.458;2022-09-23T12:02:22;20.80;99.90
21834;DHT22;11079;51.092;3.458;2022-09-23T12:05:00;20.60;99.90
21834;DHT22;11079;51.092;3.458;2022-09-23T12:07:50;20.70;99.90
21834;DHT22;11079;51.092;3.458;2022-09-23T12:10:22;21.10;99.90
21834;DHT22;11079;51.092;3.458;2022-09-23T12:13:10;21.40;99.90
21834;DHT22;11079;51.092;3.458;2022-09-23T12:15:48;21.70;99.90
21834;DHT22;11079;51.092;3.458;2022-09-23T12:18:52;21.60;99.90
21834;DHT22;11079;51.092;3.458;2022-09-23T12:27:14;21.80;99.90
21834;DHT22;11079;51.092;3.458;2022-09-23T12:29:54;21.80;99.90
21834;DHT22;11079;51.092;3.458;2022-09-23T12:32:20;21.90;99.90
21834;DHT22;11079;51.092;3.458;2022-09-23T12:34:48;21.90;99.90
21834;DHT22;11079;51.092;3.458;2022-09-23T12:37:36;22.00;99.90
21834;DHT22;11079;51.092;3.458;2022-09-23T12:40:08;22.30;99.90
21834;DHT22;11079;51.092;3.458;2022-09-23T12:42:45;22.30;99.90
21834;DHT22;11079;51.092;3.458;2022-09-23T12:47:56;21.60;99.90
21834;DHT22;11079;51.092;3.458;2022-09-23T12:56:13;21.50;99.90
21834;DHT22;11079;51.092;3.458;2022-09-23T13:01:16;21.20;99.90
21834;DHT22;11079;51.092;3.458;2022-09-23T13:03:53;20.80;99.90
21834;DHT22;11079;51.092;3.458;2022-09-23T13:06:41;20.50;99.90
21834;DHT22;11079;51.092;3.458;2022-09-23T13:09:14;20.10;99.90
21834;DHT22;11079;51.092;3.458;2022-09-23T13:11:42;19.70;99.90
21834;DHT22;11079;51.092;3.458;2022-09-23T13:14:13;19.60;99.90
21834;DHT22;11079;51.092;3.458;2022-09-23T13:16:41;19.60;99.90
21834;DHT22;11079;51.092;3.458;2022-09-23T13:26:55;19.80;99.90
21834;DHT22;11079;51.092;3.458;2022-09-23T13:32:23;20.10;99.90
21834;DHT22;11079;51.092;3.458;2022-09-23T13:35:02;20.20;99.90
21834;DHT22;11079;51.092;3.458;2022-09-23T13:40:14;20.70;99.90
21834;DHT22;11079;51.092;3.458;2022-09-23T13:42:40;20.90;99.90
21834;DHT22;11079;51.092;3.458;2022-09-23T13:45:17;20.70;99.90
21834;DHT22;11079;51.092;3.458;2022-09-23T13:47:44;20.20;99.90
21834;DHT22;11079;51.092;3.458;2022-09-23T13:50:37;20.20;99.90
21834;DHT22;11079;51.092;3.458;2022-09-23T13:53:08;20.40;99.90
21834;DHT22;11079;51.092;3.458;2022-09-23T13:55:36;20.50;99.90
21834;DHT22;11079;51.092;3.458;2022-09-23T13:58:19;20.50;99.90
21834;DHT22;11079;51.092;3.458;2022-09-23T14:00:47;20.60;99.90
21834;DHT22;11079;51.092;3.458;2022-09-23T14:03:36;20.50;99.90
21834;DHT22;11079;51.092;3.458;2022-09-23T14:06:12;20.70;99.90
21834;DHT22;11079;51.092;3.458;2022-09-23T14:09:00;20.40;99.90
21834;DHT22;11079;51.092;3.458;2022-09-23T14:11:43;20.40;99.90
21834;DHT22;11079;51.092;3.458;2022-09-23T14:14:12;20.40;99.90
21834;DHT22;11079;51.092;3.458;2022-09-23T14:16:39;20.40;99.90
21834;DHT22;11079;51.092;3.458;2022-09-23T14:19:05;20.40;99.90
21834;DHT22;11079;51.092;3.458;2022-09-23T14:21:39;20.40;99.90
21834;DHT22;11079;51.092;3.458;2022-09-23T14:24:20;20.40;99.90
21834;DHT22;11079;51.092;3.458;2022-09-23T14:26:55;20.10;99.90
21834;DHT22;11079;51.092;3.458;2022-09-23T14:29:41;20.10;99.90
21834;DHT22;11079;51.092;3.458;2022-09-23T14:32:26;20.00;99.90
21834;DHT22;11079;51.092;3.458;2022-09-23T14:45:35;19.50;99.90
21834;DHT22;11079;51.092;3.458;2022-09-23T14:48:22;19.40;99.90
21834;DHT22;11079;51.092;3.458;2022-09-23T14:51:12;19.30;99.90
21834;DHT22;11079;51.092;3.458;2022-09-23T14:53:42;19.20;99.90
21834;DHT22;11079;51.092;3.458;2022-09-23T14:56:20;19.20;99.90
21834;DHT22;11079;51.092;3.458;2022-09-23T14:58:52;19.00;99.90
21834;DHT22;11079;51.092;3.458;2022-09-23T15:03:55;19.00;99.90
21834;DHT22;11079;51.092;3.458;2022-09-23T15:06:22;18.80;99.90
21834;DHT22;11079;51.092;3.458;2022-09-23T15:08:48;18.70;99.90
21834;DHT22;11079;51.092;3.458;2022-09-23T15:11:15;18.70;99.90
21834;DHT22;11079;51.092;3.458;2022-09-23T15:13:41;18.40;99.90
21834;DHT22;11079;51.092;3.458;2022-09-23T15:16:11;18.30;99.90
21834;DHT22;11079;51.092;3.458;2022-09-23T15:18:40;18.00;99.90
21834;DHT22;11079;51.092;3.458;2022-09-23T15:21:13;17.80;99.90
21834;DHT22;11079;51.092;3.458;2022-09-23T15:29:07;17.10;99.90
21834;DHT22;11079;51.092;3.458;2022-09-23T15:31:33;17.10;99.90
21834;DHT22;11079;51.092;3.458;2022-09-23T15:33:59;17.20;99.90
21834;DHT22;11079;51.092;3.458;2022-09-23T15:36:26;17.10;99.90
21834;DHT22;11079;51.092;3.458;2022-09-23T15:38:53;17.00;99.90
21834;DHT22;11079;51.092;3.458;2022-09-23T15:41:24;16.90;99.90
21834;DHT22;11079;51.092;3.458;2022-09-23T15:43:50;17.00;99.90
21834;DHT22;11079;51.092;3.458;2022-09-23T15:46:21;17.10;99.90
21834;DHT22;11079;51.092;3.458;2022-09-23T15:49:07;17.20;99.90
21834;DHT22;11079;51.092;3.458;2022-09-23T15:51:33;17.30;99.90
21834;DHT22;11079;51.092;3.458;2022-09-23T15:54:02;17.50;99.90
21834;DHT22;11079;51.092;3.458;2022-09-23T15:56:28;17.60;99.90
21834;DHT22;11079;51.092;3.458;2022-09-23T15:58:54;17.20;99.90
21834;DHT22;11079;51.092;3.458;2022-09-23T16:01:26;17.10;99.90
21834;DHT22;11079;51.092;3.458;2022-09-23T16:04:03;17.00;99.90
21834;DHT22;11079;51.092;3.458;2022-09-23T16:06:32;17.00;99.90
21834;DHT22;11079;51.092;3.458;2022-09-23T16:08:59;16.90;99.90
21834;DHT22;11079;51.092;3.458;2022-09-23T16:11:27;16.90;99.90
21834;DHT22;11079;51.092;3.458;2022-09-23T16:13:59;16.90;99.90
21834;DHT22;11079;51.092;3.458;2022-09-23T16:16:28;17.00;99.90
21834;DHT22;11079;51.092;3.458;2022-09-23T16:18:54;17.10;99.90
21834;DHT22;11079;51.092;3.458;2022-09-23T16:21:22;17.00;99.90
21834;DHT22;11079;51.092;3.458;2022-09-23T16:23:49;16.90;99.90
21834;DHT22;11079;51.092;3.458;2022-09-23T16:28:44;17.00;99.90
21834;DHT22;11079;51.092;3.458;2022-09-23T16:31:10;17.00;99.90
21834;DHT22;11079;51.092;3.458;2022-09-23T16:33:36;16.70;99.90
21834;DHT22;11079;51.092;3.458;2022-09-23T16:36:03;16.60;99.90
21834;DHT22;11079;51.092;3.458;2022-09-23T16:38:29;16.40;99.90
21834;DHT22;11079;51.092;3.458;2022-09-23T16:40:56;16.10;99.90
21834;DHT22;11079;51.092;3.458;2022-09-23T16:43:27;16.00;99.90
21834;DHT22;11079;51.092;3.458;2022-09-23T16:46:05;15.90;99.90
21834;DHT22;11079;51.092;3.458;2022-09-23T16:48:31;15.90;99.90
21834;DHT22;11079;51.092;3.458;2022-09-23T16:51:02;15.90;99.90
21834;DHT22;11079;51.092;3.458;2022-09-23T16:53:28;15.90;99.90
21834;DHT22;11079;51.092;3.458;2022-09-23T16:55:54;15.80;99.90
21834;DHT22;11079;51.092;3.458;2022-09-23T16:58:22;15.90;99.90
21834;DHT22;11079;51.092;3.458;2022-09-23T17:00:48;15.90;99.90
21834;DHT22;11079;51.092;3.458;2022-09-23T17:03:32;15.90;99.90
21834;DHT22;11079;51.092;3.458;2022-09-23T17:06:16;15.90;99.90
21834;DHT22;11079;51.092;3.458;2022-09-23T17:08:45;15.90;99.90
21834;DHT22;11079;51.092;3.458;2022-09-23T17:11:13;15.80;99.90
21834;DHT22;11079;51.092;3.458;2022-09-23T17:13:41;15.90;99.90
21834;DHT22;11079;51.092;3.458;2022-09-23T17:16:20;15.90;99.90
21834;DHT22;11079;51.092;3.458;2022-09-23T17:18:46;15.70;99.90
21834;DHT22;11079;51.092;3.458;2022-09-23T17:21:12;15.60;99.90
21834;DHT22;11079;51.092;3.458;2022-09-23T17:23:37;15.60;99.90
21834;DHT22;11079;51.092;3.458;2022-09-23T17:26:03;15.60;99.90
21834;DHT22;11079;51.092;3.458;2022-09-23T17:28:29;15.50;99.90
21834;DHT22;11079;51.092;3.458;2022-09-23T17:30:57;15.40;99.90
21834;DHT22;11079;51.092;3.458;2022-09-23T17:33:24;15.40;99.90
21834;DHT22;11079;51.092;3.458;2022-09-23T17:35:50;15.30;99.90
21834;DHT22;11079;51.092;3.458;2022-09-23T17:38:16;15.10;99.90
21834;DHT22;11079;51.092;3.458;2022-09-23T17:40:49;15.00;99.90
21834;DHT22;11079;51.092;3.458;2022-09-23T17:43:15;15.10;99.90
21834;DHT22;11079;51.092;3.458;2022-09-23T17:45:41;15.00;99.90
21834;DHT22;11079;51.092;3.458;2022-09-23T17:48:06;15.10;99.90
21834;DHT22;11079;51.092;3.458;2022-09-23T17:50:32;15.20;99.90
21834;DHT22;11079;51.092;3.458;2022-09-23T17:52:58;15.20;99.90
21834;DHT22;11079;51.092;3.458;2022-09-23T17:55:25;15.10;99.90
21834;DHT22;11079;51.092;3.458;2022-09-23T17:57:50;15.10;99.90
21834;DHT22;11079;51.092;3.458;2022-09-23T18:00:17;14.90;99.90
21834;DHT22;11079;51.092;3.458;2022-09-23T18:02:42;14.90;99.90
21834;DHT22;11079;51.092;3.458;2022-09-23T18:05:11;14.80;99.90
21834;DHT22;11079;51.092;3.458;2022-09-23T18:07:36;14.80;99.90
21834;DHT22;11079;51.092;3.458;2022-09-23T18:10:02;14.80;99.90
21834;DHT22;11079;51.092;3.458;2022-09-23T18:12:28;14.80;99.90
21834;DHT22;11079;51.092;3.458;2022-09-23T18:14:53;14.80;99.90
21834;DHT22;11079;51.092;3.458;2022-09-23T18:17:19;14.80;99.90
21834;DHT22;11079;51.092;3.458;2022-09-23T18:19:45;14.70;99.90
21834;DHT22;11079;51.092;3.458;2022-09-23T18:22:13;14.90;99.90
21834;DHT22;11079;51.092;3.458;2022-09-23T18:24:39;14.80;99.90
21834;DHT22;11079;51.092;3.458;2022-09-23T18:27:06;14.90;99.90
21834;DHT22;11079;51.092;3.458;2022-09-23T18:29:32;14.80;99.90
21834;DHT22;11079;51.092;3.458;2022-09-23T18:31:59;14.90;99.90
21834;DHT22;11079;51.092;3.458;2022-09-23T18:34:25;14.90;99.90
21834;DHT22;11079;51.092;3.458;2022-09-23T18:36:51;14.80;99.90
21834;DHT22;11079;51.092;3.458;2022-09-23T18:39:20;14.80;99.90
21834;DHT22;11079;51.092;3.458;2022-09-23T18:41:45;14.70;99.90
21834;DHT22;11079;51.092;3.458;2022-09-23T18:44:14;14.80;99.90